sensor_id;sensor_type;location;lat;lon;timestamp;pressure;altitude;pressure_sealevel;temperature
78225;BMP280;67498;53.650;10.090;2024-03-02T00:00:08;100351.00;;;8.84
78225;BMP280;67498;53.650;10.090;2024-03-02T00:02:43;100355.06;;;8.85
78225;BMP280;67498;53.650;10.090;2024-03-02T00:05:13;100353.59;;;8.84
78225;BMP280;67498;53.650;10.090;2024-03-02T00:07:43;100350.97;;;8.87
78225;BMP280;67498;53.650;10.090;2024-03-02T00:10:11;100351.63;;;8.95
78225;BMP280;67498;53.650;10.090;2024-03-02T00:12:40;100348.28;;;8.91
78225;BMP280;67498;53.650;10.090;2024-03-02T00:15:39;100336.81;;;8.88
78225;BMP280;67498;53.650;10.090;2024-03-02T00:18:07;100330.91;;;8.84
78225;BMP280;67498;53.650;10.090;2024-03-02T00:20:33;100325.00;;;8.80
78225;BMP280;67498;53.650;10.090;2024-03-02T00:23:08;100327.53;;;8.87
78225;BMP280;67498;53.650;10.090;2024-03-02T00:28:33;100331.53;;;8.92
78225;BMP280;67498;53.650;10.090;2024-03-02T00:31:02;100327.84;;;8.89
78225;BMP280;67498;53.650;10.090;2024-03-02T00:33:30;100327.84;;;8.89
78225;BMP280;67498;53.650;10.090;2024-03-02T00:35:57;100305.69;;;8.78
78225;BMP280;67498;53.650;10.090;2024-03-02T00:38:22;100329.28;;;8.94
78225;BMP280;67498;53.650;10.090;2024-03-02T00:40:47;100317.44;;;8.89
78225;BMP280;67498;53.650;10.090;2024-03-02T00:46:00;100318.63;;;8.85
78225;BMP280;67498;53.650;10.090;2024-03-02T00:48:25;100317.16;;;8.84
78225;BMP280;67498;53.650;10.090;2024-03-02T00:50:52;100318.63;;;8.85
78225;BMP280;67498;53.650;10.090;2024-03-02T00:53:23;100326.81;;;8.83
78225;BMP280;67498;53.650;10.090;2024-03-02T00:55:49;100296.56;;;8.66
78225;BMP280;67498;53.650;10.090;2024-03-02T00:58:15;100329.06;;;8.81
78225;BMP280;67498;53.650;10.090;2024-03-02T01:00:40;100302.88;;;8.65
78225;BMP280;67498;53.650;10.090;2024-03-02T01:03:05;100304.72;;;8.64
78225;BMP280;67498;53.650;10.090;2024-03-02T01:05:31;100293.28;;;8.58
78225;BMP280;67498;53.650;10.090;2024-03-02T01:07:56;100311.41;;;8.65
78225;BMP280;67498;53.650;10.090;2024-03-02T01:10:21;100300.69;;;8.60
78225;BMP280;67498;53.650;10.090;2024-03-02T01:12:47;100294.41;;;8.54
78225;BMP280;67498;53.650;10.090;2024-03-02T01:15:12;100317.38;;;8.62
78225;BMP280;67498;53.650;10.090;2024-03-02T01:17:37;100329.19;;;8.71
78225;BMP280;67498;53.650;10.090;2024-03-02T01:20:03;100324.78;;;8.67
78225;BMP280;67498;53.650;10.090;2024-03-02T01:22:32;100297.78;;;8.54
78225;BMP280;67498;53.650;10.090;2024-03-02T01:24:57;100307.78;;;8.56
78225;BMP280;67498;53.650;10.090;2024-03-02T01:27:23;100314.84;;;8.59
78225;BMP280;67498;53.650;10.090;2024-03-02T01:29:48;100327.41;;;8.64
78225;BMP280;67498;53.650;10.090;2024-03-02T01:32:13;100329.25;;;8.67
78225;BMP280;67498;53.650;10.090;2024-03-02T01:34:38;100332.56;;;8.67
78225;BMP280;67498;53.650;10.090;2024-03-02T01:37:04;100325.19;;;8.62
78225;BMP280;67498;53.650;10.090;2024-03-02T01:39:29;100308.56;;;8.56
78225;BMP280;67498;53.650;10.090;2024-03-02T01:41:55;100301.19;;;8.48
78225;BMP280;67498;53.650;10.090;2024-03-02T01:44:20;100308.19;;;8.54
78225;BMP280;67498;53.650;10.090;2024-03-02T01:46:45;100302.63;;;8.52
78225;BMP280;67498;53.650;10.090;2024-03-02T01:49:11;100320.06;;;8.59
78225;BMP280;67498;53.650;10.090;2024-03-02T01:51:36;100308.88;;;8.58
78225;BMP280;67498;53.650;10.090;2024-03-02T01:54:01;100314.09;;;8.58
78225;BMP280;67498;53.650;10.090;2024-03-02T01:56:27;100309.66;;;8.55
78225;BMP280;67498;53.650;10.090;2024-03-02T01:58:52;100304.47;;;8.55
78225;BMP280;67498;53.650;10.090;2024-03-02T02:01:17;100301.91;;;8.52
78225;BMP280;67498;53.650;10.090;2024-03-02T02:03:43;100304.13;;;8.50
78225;BMP280;67498;53.650;10.090;2024-03-02T02:06:09;100298.97;;;8.46
78225;BMP280;67498;53.650;10.090;2024-03-02T02:08:36;100308.19;;;8.54
78225;BMP280;67498;53.650;10.090;2024-03-02T02:11:02;100304.81;;;8.54
78225;BMP280;67498;53.650;10.090;2024-03-02T02:13:27;100292.69;;;8.43
78225;BMP280;67498;53.650;10.090;2024-03-02T02:15:52;100308.94;;;8.51
78225;BMP280;67498;53.650;10.090;2024-03-02T02:18:18;100309.31;;;8.53
78225;BMP280;67498;53.650;10.090;2024-03-02T02:20:43;100300.75;;;8.53
78225;BMP280;67498;53.650;10.090;2024-03-02T02:23:08;100304.50;;;8.52
78225;BMP280;67498;53.650;10.090;2024-03-02T02:25:35;100294.88;;;8.49
78225;BMP280;67498;53.650;10.090;2024-03-02T02:28:01;100301.50;;;8.53
78225;BMP280;67498;53.650;10.090;2024-03-02T02:30:31;100300.03;;;8.52
78225;BMP280;67498;53.650;10.090;2024-03-02T02:32:56;100294.88;;;8.49
78225;BMP280;67498;53.650;10.090;2024-03-02T02:35:22;100297.81;;;8.51
78225;BMP280;67498;53.650;10.090;2024-03-02T02:37:49;100295.94;;;8.51
78225;BMP280;67498;53.650;10.090;2024-03-02T02:40:15;100291.88;;;8.50
78225;BMP280;67498;53.650;10.090;2024-03-02T02:42:41;100287.06;;;8.49
78225;BMP280;67498;53.650;10.090;2024-03-02T02:45:06;100287.41;;;8.51
78225;BMP280;67498;53.650;10.090;2024-03-02T02:47:32;100274.91;;;8.38
78225;BMP280;67498;53.650;10.090;2024-03-02T02:50:02;100259.00;;;8.29
78225;BMP280;67498;53.650;10.090;2024-03-02T02:52:35;100270.41;;;8.39
78225;BMP280;67498;53.650;10.090;2024-03-02T02:55:03;100253.06;;;8.29
78225;BMP280;67498;53.650;10.090;2024-03-02T02:57:28;100267.88;;;8.35
78225;BMP280;67498;53.650;10.090;2024-03-02T02:59:55;100249.41;;;8.26
78225;BMP280;67498;53.650;10.090;2024-03-02T03:02:21;100247.91;;;8.25
78225;BMP280;67498;53.650;10.090;2024-03-02T03:04:46;100263.44;;;8.32
78225;BMP280;67498;53.650;10.090;2024-03-02T03:07:11;100268.19;;;8.41
78225;BMP280;67498;53.650;10.090;2024-03-02T03:09:37;100249.03;;;8.24
78225;BMP280;67498;53.650;10.090;2024-03-02T03:12:04;100257.13;;;8.33
78225;BMP280;67498;53.650;10.090;2024-03-02T03:14:29;100255.34;;;8.27
78225;BMP280;67498;53.650;10.090;2024-03-02T03:16:54;100273.44;;;8.37
78225;BMP280;67498;53.650;10.090;2024-03-02T03:19:19;100266.09;;;8.25
78225;BMP280;67498;53.650;10.090;2024-03-02T03:21:45;100265.00;;;8.26
78225;BMP280;67498;53.650;10.090;2024-03-02T03:24:10;100279.03;;;8.36
78225;BMP280;67498;53.650;10.090;2024-03-02T03:26:36;100255.03;;;8.17
78225;BMP280;67498;53.650;10.090;2024-03-02T03:29:01;100258.06;;;8.12
78225;BMP280;67498;53.650;10.090;2024-03-02T03:31:27;100266.88;;;8.22
78225;BMP280;67498;53.650;10.090;2024-03-02T03:33:53;100250.28;;;8.12
78225;BMP280;67498;53.650;10.090;2024-03-02T03:36:18;100273.91;;;8.25
78225;BMP280;67498;53.650;10.090;2024-03-02T03:38:43;100263.91;;;8.24
78225;BMP280;67498;53.650;10.090;2024-03-02T03:41:09;100257.69;;;8.14
78225;BMP280;67498;53.650;10.090;2024-03-02T03:43:35;100247.31;;;8.10
78225;BMP280;67498;53.650;10.090;2024-03-02T03:46:00;100264.72;;;8.17
78225;BMP280;67498;53.650;10.090;2024-03-02T03:48:27;100255.47;;;8.16
78225;BMP280;67498;53.650;10.090;2024-03-02T03:50:56;100258.06;;;8.12
78225;BMP280;67498;53.650;10.090;2024-03-02T03:53:21;100258.78;;;8.16
78225;BMP280;67498;53.650;10.090;2024-03-02T03:55:47;100262.09;;;8.20
78225;BMP280;67498;53.650;10.090;2024-03-02T03:58:14;100259.16;;;8.15
78225;BMP280;67498;53.650;10.090;2024-03-02T04:00:41;100252.84;;;8.16
78225;BMP280;67498;53.650;10.090;2024-03-02T04:03:07;100255.75;;;8.18
78225;BMP280;67498;53.650;10.090;2024-03-02T04:05:32;100266.81;;;8.29
78225;BMP280;67498;53.650;10.090;2024-03-02T04:07:58;100265.34;;;8.28
78225;BMP280;67498;53.650;10.090;2024-03-02T04:10:23;100277.22;;;8.29
78225;BMP280;67498;53.650;10.090;2024-03-02T04:12:49;100259.81;;;8.26
78225;BMP280;67498;53.650;10.090;2024-03-02T04:15:15;100251.59;;;8.28
78225;BMP280;67498;53.650;10.090;2024-03-02T04:17:41;100249.13;;;8.17
78225;BMP280;67498;53.650;10.090;2024-03-02T04:20:06;100243.19;;;8.16
78225;BMP280;67498;53.650;10.090;2024-03-02T04:22:33;100254.94;;;8.28
78225;BMP280;67498;53.650;10.090;2024-03-02T04:25:00;100249.72;;;8.28
78225;BMP280;67498;53.650;10.090;2024-03-02T04:27:25;100248.69;;;8.22
78225;BMP280;67498;53.650;10.090;2024-03-02T04:29:51;100246.47;;;8.20
78225;BMP280;67498;53.650;10.090;2024-03-02T04:32:16;100247.59;;;8.19
78225;BMP280;67498;53.650;10.090;2024-03-02T04:34:42;100246.09;;;8.22
78225;BMP280;67498;53.650;10.090;2024-03-02T04:37:08;100255.00;;;8.21
78225;BMP280;67498;53.650;10.090;2024-03-02T04:39:35;100258.66;;;8.27
78225;BMP280;67498;53.650;10.090;2024-03-02T04:42:00;100270.22;;;8.26
78225;BMP280;67498;53.650;10.090;2024-03-02T04:44:25;100257.22;;;8.23
78225;BMP280;67498;53.650;10.090;2024-03-02T04:46:51;100268.72;;;8.25
78225;BMP280;67498;53.650;10.090;2024-03-02T04:49:16;100264.28;;;8.26
78225;BMP280;67498;53.650;10.090;2024-03-02T04:51:41;100263.19;;;8.23
78225;BMP280;67498;53.650;10.090;2024-03-02T04:54:06;100266.16;;;8.21
78225;BMP280;67498;53.650;10.090;2024-03-02T04:56:32;100273.94;;;8.21
78225;BMP280;67498;53.650;10.090;2024-03-02T04:58:58;100264.69;;;8.20
78225;BMP280;67498;53.650;10.090;2024-03-02T05:01:23;100269.91;;;8.17
78225;BMP280;67498;53.650;10.090;2024-03-02T05:03:48;100287.69;;;8.22
78225;BMP280;67498;53.650;10.090;2024-03-02T05:06:13;100269.13;;;8.20
78225;BMP280;67498;53.650;10.090;2024-03-02T05:08:39;100276.91;;;8.20
78225;BMP280;67498;53.650;10.090;2024-03-02T05:11:04;100284.72;;;8.20
78225;BMP280;67498;53.650;10.090;2024-03-02T05:13:48;100278.09;;;8.15
78225;BMP280;67498;53.650;10.090;2024-03-02T05:16:13;100275.13;;;8.17
78225;BMP280;67498;53.650;10.090;2024-03-02T05:18:39;100269.91;;;8.17
78225;BMP280;67498;53.650;10.090;2024-03-02T05:21:05;100276.25;;;8.16
78225;BMP280;67498;53.650;10.090;2024-03-02T05:23:30;100267.34;;;8.13
78225;BMP280;67498;53.650;10.090;2024-03-02T05:25:56;100260.31;;;8.10
78225;BMP280;67498;53.650;10.090;2024-03-02T05:28:21;100265.50;;;8.14
78225;BMP280;67498;53.650;10.090;2024-03-02T05:30:46;100265.88;;;8.12
78225;BMP280;67498;53.650;10.090;2024-03-02T05:33:12;100265.88;;;8.12
78225;BMP280;67498;53.650;10.090;2024-03-02T05:35:37;100267.00;;;8.11
78225;BMP280;67498;53.650;10.090;2024-03-02T05:38:03;100271.09;;;8.09
78225;BMP280;67498;53.650;10.090;2024-03-02T05:40:28;100275.53;;;8.12
78225;BMP280;67498;53.650;10.090;2024-03-02T05:42:53;100271.47;;;8.07
78225;BMP280;67498;53.650;10.090;2024-03-02T05:45:18;100273.69;;;8.09
78225;BMP280;67498;53.650;10.090;2024-03-02T05:47:44;100265.56;;;8.03
78225;BMP280;67498;53.650;10.090;2024-03-02T05:50:09;100278.91;;;8.09
78225;BMP280;67498;53.650;10.090;2024-03-02T05:52:34;100283.03;;;8.06
78225;BMP280;67498;53.650;10.090;2024-03-02T05:55:00;100281.13;;;8.07
78225;BMP280;67498;53.650;10.090;2024-03-02T05:57:25;100274.88;;;8.04
78225;BMP280;67498;53.650;10.090;2024-03-02T06:00:06;100266.66;;;8.06
78225;BMP280;67498;53.650;10.090;2024-03-02T06:02:33;100270.78;;;8.03
78225;BMP280;67498;53.650;10.090;2024-03-02T06:04:58;100262.97;;;8.03
78225;BMP280;67498;53.650;10.090;2024-03-02T06:07:23;100263.03;;;7.96
78225;BMP280;67498;53.650;10.090;2024-03-02T06:09:49;100277.06;;;8.06
78225;BMP280;67498;53.650;10.090;2024-03-02T06:12:16;100270.03;;;8.03
78225;BMP280;67498;53.650;10.090;2024-03-02T06:14:43;100267.06;;;8.01
78225;BMP280;67498;53.650;10.090;2024-03-02T06:17:08;100276.75;;;8.00
78225;BMP280;67498;53.650;10.090;2024-03-02T06:19:33;100280.13;;;7.97
78225;BMP280;67498;53.650;10.090;2024-03-02T06:21:58;100272.31;;;7.97
78225;BMP280;67498;53.650;10.090;2024-03-02T06:24:24;100270.09;;;7.95
78225;BMP280;67498;53.650;10.090;2024-03-02T06:26:51;100278.63;;;7.96
78225;BMP280;67498;53.650;10.090;2024-03-02T06:29:17;100272.75;;;7.92
78225;BMP280;67498;53.650;10.090;2024-03-02T06:31:42;100297.53;;;8.00
78225;BMP280;67498;53.650;10.090;2024-03-02T06:34:07;100286.06;;;7.94
78225;BMP280;67498;53.650;10.090;2024-03-02T06:36:33;100293.81;;;8.01
78225;BMP280;67498;53.650;10.090;2024-03-02T06:38:59;100299.00;;;8.01
78225;BMP280;67498;53.650;10.090;2024-03-02T06:41:24;100287.88;;;8.01
78225;BMP280;67498;53.650;10.090;2024-03-02T06:43:49;100294.16;;;8.03
78225;BMP280;67498;53.650;10.090;2024-03-02T06:46:15;100279.72;;;7.98
78225;BMP280;67498;53.650;10.090;2024-03-02T06:48:40;100295.25;;;8.06
78225;BMP280;67498;53.650;10.090;2024-03-02T06:51:05;100287.88;;;8.04
78225;BMP280;67498;53.650;10.090;2024-03-02T06:53:31;100295.66;;;8.04
78225;BMP280;67498;53.650;10.090;2024-03-02T06:55:58;100294.91;;;8.04
78225;BMP280;67498;53.650;10.090;2024-03-02T06:58:23;100290.47;;;8.01
78225;BMP280;67498;53.650;10.090;2024-03-02T07:00:49;100298.25;;;8.04
78225;BMP280;67498;53.650;10.090;2024-03-02T07:03:14;100296.72;;;8.07
78225;BMP280;67498;53.650;10.090;2024-03-02T07:05:39;100279.69;;;8.02
78225;BMP280;67498;53.650;10.090;2024-03-02T07:08:05;100285.63;;;8.06
78225;BMP280;67498;53.650;10.090;2024-03-02T07:10:31;100287.47;;;8.06
78225;BMP280;67498;53.650;10.090;2024-03-02T07:12:56;100301.91;;;8.10
78225;BMP280;67498;53.650;10.090;2024-03-02T07:15:21;100287.81;;;8.08
78225;BMP280;67498;53.650;10.090;2024-03-02T07:17:52;100293.00;;;8.11
78225;BMP280;67498;53.650;10.090;2024-03-02T07:20:18;100299.66;;;8.16
78225;BMP280;67498;53.650;10.090;2024-03-02T07:22:43;100285.91;;;8.15
78225;BMP280;67498;53.650;10.090;2024-03-02T07:25:08;100290.72;;;8.17
78225;BMP280;67498;53.650;10.090;2024-03-02T07:27:34;100315.56;;;8.21
78225;BMP280;67498;53.650;10.090;2024-03-02T07:30:03;100310.34;;;8.21
78225;BMP280;67498;53.650;10.090;2024-03-02T07:32:29;100315.50;;;8.25
78225;BMP280;67498;53.650;10.090;2024-03-02T07:34:54;100318.88;;;8.26
78225;BMP280;67498;53.650;10.090;2024-03-02T07:37:21;100328.09;;;8.30
78225;BMP280;67498;53.650;10.090;2024-03-02T07:39:46;100324.75;;;8.33
78225;BMP280;67498;53.650;10.090;2024-03-02T07:42:11;100337.63;;;8.44
78225;BMP280;67498;53.650;10.090;2024-03-02T07:44:37;100327.22;;;8.48
78225;BMP280;67498;53.650;10.090;2024-03-02T07:47:03;100340.50;;;8.53
78225;BMP280;67498;53.650;10.090;2024-03-02T07:49:28;100335.66;;;8.59
78225;BMP280;67498;53.650;10.090;2024-03-02T07:51:53;100325.97;;;8.59
78225;BMP280;67498;53.650;10.090;2024-03-02T07:54:18;100346.31;;;8.68
78225;BMP280;67498;53.650;10.090;2024-03-02T07:56:45;100331.13;;;8.66
78225;BMP280;67498;53.650;10.090;2024-03-02T07:59:10;100348.47;;;8.77
78225;BMP280;67498;53.650;10.090;2024-03-02T08:01:35;100340.63;;;8.80
78225;BMP280;67498;53.650;10.090;2024-03-02T08:04:01;100348.00;;;8.85
78225;BMP280;67498;53.650;10.090;2024-03-02T08:06:29;100349.84;;;8.88
78225;BMP280;67498;53.650;10.090;2024-03-02T08:08:55;100342.75;;;8.89
78225;BMP280;67498;53.650;10.090;2024-03-02T08:11:21;100355.72;;;8.93
78225;BMP280;67498;53.650;10.090;2024-03-02T08:13:47;100350.03;;;9.01
78225;BMP280;67498;53.650;10.090;2024-03-02T08:16:13;100354.41;;;9.11
78225;BMP280;67498;53.650;10.090;2024-03-02T08:18:38;100346.19;;;9.13
78225;BMP280;67498;53.650;10.090;2024-03-02T08:21:04;100346.44;;;9.22
78225;BMP280;67498;53.650;10.090;2024-03-02T08:23:29;100348.88;;;9.36
78225;BMP280;67498;53.650;10.090;2024-03-02T08:25:55;100343.84;;;9.49
78225;BMP280;67498;53.650;10.090;2024-03-02T08:28:20;100357.34;;;9.68
78225;BMP280;67498;53.650;10.090;2024-03-02T08:30:46;100371.94;;;9.89
78225;BMP280;67498;53.650;10.090;2024-03-02T08:33:11;100348.31;;;9.76
78225;BMP280;67498;53.650;10.090;2024-03-02T08:35:36;100363.78;;;9.87
78225;BMP280;67498;53.650;10.090;2024-03-02T08:38:03;100378.53;;;9.97
78225;BMP280;67498;53.650;10.090;2024-03-02T08:40:28;100359.34;;;9.83
78225;BMP280;67498;53.650;10.090;2024-03-02T08:42:54;100365.66;;;9.86
78225;BMP280;67498;53.650;10.090;2024-03-02T08:45:19;100372.34;;;9.87
78225;BMP280;67498;53.650;10.090;2024-03-02T08:47:45;100357.88;;;9.82
78225;BMP280;67498;53.650;10.090;2024-03-02T08:50:11;100369.38;;;9.85
78225;BMP280;67498;53.650;10.090;2024-03-02T08:52:36;100364.16;;;9.85
78225;BMP280;67498;53.650;10.090;2024-03-02T08:55:01;100368.66;;;9.84
78225;BMP280;67498;53.650;10.090;2024-03-02T08:57:27;100380.38;;;10.00
78225;BMP280;67498;53.650;10.090;2024-03-02T08:59:52;100377.22;;;10.08
78225;BMP280;67498;53.650;10.090;2024-03-02T09:02:18;100378.59;;;10.17
78225;BMP280;67498;53.650;10.090;2024-03-02T09:04:43;100359.63;;;10.13
78225;BMP280;67498;53.650;10.090;2024-03-02T09:07:08;100361.41;;;10.19
78225;BMP280;67498;53.650;10.090;2024-03-02T09:09:33;100385.78;;;10.32
78225;BMP280;67498;53.650;10.090;2024-03-02T09:11:59;100384.56;;;10.37
78225;BMP280;67498;53.650;10.090;2024-03-02T09:14:24;100389.75;;;10.41
78225;BMP280;67498;53.650;10.090;2024-03-02T09:16:49;100385.66;;;10.40
78225;BMP280;67498;53.650;10.090;2024-03-02T09:19:15;100389.28;;;10.46
78225;BMP280;67498;53.650;10.090;2024-03-02T09:21:42;100386.28;;;10.47
78225;BMP280;67498;53.650;10.090;2024-03-02T09:24:07;100394.94;;;10.64
78225;BMP280;67498;53.650;10.090;2024-03-02T09:26:32;100394.09;;;10.87
78225;BMP280;67498;53.650;10.090;2024-03-02T09:28:58;100390.66;;;11.10
78225;BMP280;67498;53.650;10.090;2024-03-02T09:31:23;100395.31;;;11.39
78225;BMP280;67498;53.650;10.090;2024-03-02T09:33:48;100397.03;;;11.62
78225;BMP280;67498;53.650;10.090;2024-03-02T09:36:21;100391.47;;;11.76
78225;BMP280;67498;53.650;10.090;2024-03-02T09:38:47;100398.50;;;11.95
78225;BMP280;67498;53.650;10.090;2024-03-02T09:41:13;100399.16;;;12.00
78225;BMP280;67498;53.650;10.090;2024-03-02T09:43:39;100391.97;;;12.16
78225;BMP280;67498;53.650;10.090;2024-03-02T09:46:05;100394.91;;;12.35
78225;BMP280;67498;53.650;10.090;2024-03-02T09:48:31;100388.22;;;12.46
78225;BMP280;67498;53.650;10.090;2024-03-02T09:50:56;100392.56;;;12.53
78225;BMP280;67498;53.650;10.090;2024-03-02T09:53:23;100400.09;;;12.64
78225;BMP280;67498;53.650;10.090;2024-03-02T09:55:48;100399.06;;;12.61
78225;BMP280;67498;53.650;10.090;2024-03-02T09:58:14;100385.44;;;12.66
78225;BMP280;67498;53.650;10.090;2024-03-02T10:00:39;100375.41;;;12.78
78225;BMP280;67498;53.650;10.090;2024-03-02T10:03:04;100405.09;;;13.13
78225;BMP280;67498;53.650;10.090;2024-03-02T10:05:30;100403.22;;;13.13
78225;BMP280;67498;53.650;10.090;2024-03-02T10:07:59;100390.84;;;13.14
78225;BMP280;67498;53.650;10.090;2024-03-02T10:10:34;100397.97;;;13.26
78225;BMP280;67498;53.650;10.090;2024-03-02T10:13:04;100383.81;;;13.36
78225;BMP280;67498;53.650;10.090;2024-03-02T10:15:33;100389.13;;;13.46
78225;BMP280;67498;53.650;10.090;2024-03-02T10:17:58;100396.16;;;13.61
78225;BMP280;67498;53.650;10.090;2024-03-02T10:20:25;100405.78;;;13.64
78225;BMP280;67498;53.650;10.090;2024-03-02T10:22:51;100391.63;;;13.75
78225;BMP280;67498;53.650;10.090;2024-03-02T10:25:30;100391.34;;;13.95
78225;BMP280;67498;53.650;10.090;2024-03-02T10:28:00;100399.38;;;14.22
78225;BMP280;67498;53.650;10.090;2024-03-02T10:30:28;100396.03;;;14.22
78225;BMP280;67498;53.650;10.090;2024-03-02T10:32:54;100409.88;;;14.13
78225;BMP280;67498;53.650;10.090;2024-03-02T10:35:24;100399.38;;;14.13
78225;BMP280;67498;53.650;10.090;2024-03-02T10:37:51;100401.84;;;14.16
78225;BMP280;67498;53.650;10.090;2024-03-02T10:40:17;100395.69;;;14.10
78225;BMP280;67498;53.650;10.090;2024-03-02T10:42:43;100387.69;;;14.14
78225;BMP280;67498;53.650;10.090;2024-03-02T10:45:12;100397.09;;;14.24
78225;BMP280;67498;53.650;10.090;2024-03-02T10:47:38;100398.78;;;14.40
78225;BMP280;67498;53.650;10.090;2024-03-02T10:50:04;100398.22;;;14.45
78225;BMP280;67498;53.650;10.090;2024-03-02T10:52:37;100399.03;;;14.33
78225;BMP280;67498;53.650;10.090;2024-03-02T10:55:03;100412.84;;;14.24
78225;BMP280;67498;53.650;10.090;2024-03-02T10:57:41;100416.56;;;14.14
78225;BMP280;67498;53.650;10.090;2024-03-02T11:00:08;100402.75;;;14.01
78225;BMP280;67498;53.650;10.090;2024-03-02T11:02:42;100404.16;;;13.92
78225;BMP280;67498;53.650;10.090;2024-03-02T11:05:08;100400.69;;;13.83
78225;BMP280;67498;53.650;10.090;2024-03-02T11:07:37;100402.91;;;13.84
78225;BMP280;67498;53.650;10.090;2024-03-02T11:10:05;100406.78;;;13.92
78225;BMP280;67498;53.650;10.090;2024-03-02T11:12:39;100404.69;;;13.87
78225;BMP280;67498;53.650;10.090;2024-03-02T11:15:17;100407.31;;;13.87
78225;BMP280;67498;53.650;10.090;2024-03-02T11:17:43;100410.25;;;13.89
78225;BMP280;67498;53.650;10.090;2024-03-02T11:20:09;100410.97;;;13.90
78225;BMP280;67498;53.650;10.090;2024-03-02T11:22:36;100416.00;;;13.97
78225;BMP280;67498;53.650;10.090;2024-03-02T11:25:01;100412.16;;;13.89
78225;BMP280;67498;53.650;10.090;2024-03-02T11:33:05;100407.03;;;13.73
78225;BMP280;67498;53.650;10.090;2024-03-02T11:35:38;100418.25;;;13.73
78225;BMP280;67498;53.650;10.090;2024-03-02T11:38:07;100419.34;;;13.63
78225;BMP280;67498;53.650;10.090;2024-03-02T11:40:32;100421.75;;;13.57
78225;BMP280;67498;53.650;10.090;2024-03-02T11:42:59;100416.94;;;13.56
78225;BMP280;67498;53.650;10.090;2024-03-02T11:45:26;100415.06;;;13.56
78225;BMP280;67498;53.650;10.090;2024-03-02T11:47:54;100414.19;;;13.59
78225;BMP280;67498;53.650;10.090;2024-03-02T11:50:40;100421.97;;;13.63
78225;BMP280;67498;53.650;10.090;2024-03-02T11:53:08;100424.69;;;13.59
78225;BMP280;67498;53.650;10.090;2024-03-02T11:55:35;100423.22;;;13.58
78225;BMP280;67498;53.650;10.090;2024-03-02T11:58:02;100419.97;;;13.54
78225;BMP280;67498;53.650;10.090;2024-03-02T12:00:27;100419.34;;;13.50
78225;BMP280;67498;53.650;10.090;2024-03-02T12:03:06;100416.84;;;13.47
78225;BMP280;67498;53.650;10.090;2024-03-02T12:05:32;100426.72;;;13.42
78225;BMP280;67498;53.650;10.090;2024-03-02T12:08:03;100419.47;;;13.47
78225;BMP280;67498;53.650;10.090;2024-03-02T12:10:29;100418.72;;;13.46
78225;BMP280;67498;53.650;10.090;2024-03-02T12:12:59;100403.41;;;13.44
78225;BMP280;67498;53.650;10.090;2024-03-02T12:15:26;100416.09;;;13.46
78225;BMP280;67498;53.650;10.090;2024-03-02T12:17:56;100409.06;;;13.43
78225;BMP280;67498;53.650;10.090;2024-03-02T12:20:23;100417.97;;;13.46
78225;BMP280;67498;53.650;10.090;2024-03-02T12:22:52;100416.84;;;13.47
78225;BMP280;67498;53.650;10.090;2024-03-02T12:25:22;100406.53;;;13.52
78225;BMP280;67498;53.650;10.090;2024-03-02T12:27:49;100408.84;;;13.63
78225;BMP280;67498;53.650;10.090;2024-03-02T12:30:18;100398.78;;;13.61
78225;BMP280;67498;53.650;10.090;2024-03-02T12:32:45;100402.84;;;13.62
78225;BMP280;67498;53.650;10.090;2024-03-02T12:35:10;100405.91;;;13.61
78225;BMP280;67498;53.650;10.090;2024-03-02T12:37:43;100405.47;;;13.62
78225;BMP280;67498;53.650;10.090;2024-03-02T12:40:12;100398.66;;;13.65
78225;BMP280;67498;53.650;10.090;2024-03-02T12:42:39;100392.25;;;13.66
78225;BMP280;67498;53.650;10.090;2024-03-02T12:45:06;100391.72;;;13.71
78225;BMP280;67498;53.650;10.090;2024-03-02T12:47:33;100401.47;;;13.71
78225;BMP280;67498;53.650;10.090;2024-03-02T12:49:59;100402.75;;;13.66
78225;BMP280;67498;53.650;10.090;2024-03-02T12:52:24;100405.25;;;13.70
78225;BMP280;67498;53.650;10.090;2024-03-02T12:54:50;100397.91;;;13.64
78225;BMP280;67498;53.650;10.090;2024-03-02T12:57:19;100391.94;;;13.64
78225;BMP280;67498;53.650;10.090;2024-03-02T12:59:47;100404.63;;;13.65
78225;BMP280;67498;53.650;10.090;2024-03-02T13:02:19;100408.09;;;13.62
78225;BMP280;67498;53.650;10.090;2024-03-02T13:04:52;100398.03;;;13.61
78225;BMP280;67498;53.650;10.090;2024-03-02T13:07:19;100397.00;;;13.58
78225;BMP280;67498;53.650;10.090;2024-03-02T13:09:45;100402.13;;;13.62
78225;BMP280;67498;53.650;10.090;2024-03-02T13:12:11;100396.03;;;13.65
78225;BMP280;67498;53.650;10.090;2024-03-02T13:14:36;100396.66;;;13.69
78225;BMP280;67498;53.650;10.090;2024-03-02T13:17:02;100392.75;;;13.74
78225;BMP280;67498;53.650;10.090;2024-03-02T13:19:30;100399.50;;;13.75
78225;BMP280;67498;53.650;10.090;2024-03-02T13:21:56;100391.31;;;13.73
78225;BMP280;67498;53.650;10.090;2024-03-02T13:24:22;100394.88;;;13.66
78225;BMP280;67498;53.650;10.090;2024-03-02T13:26:50;100393.41;;;13.65
78225;BMP280;67498;53.650;10.090;2024-03-02T13:29:20;100384.06;;;13.64
78225;BMP280;67498;53.650;10.090;2024-03-02T13:31:46;100391.84;;;13.67
78225;BMP280;67498;53.650;10.090;2024-03-02T13:34:11;100388.59;;;13.63
78225;BMP280;67498;53.650;10.090;2024-03-02T13:36:37;100387.88;;;13.63
78225;BMP280;67498;53.650;10.090;2024-03-02T13:39:03;100380.81;;;13.60
78225;BMP280;67498;53.650;10.090;2024-03-02T13:41:30;100384.94;;;13.61
78225;BMP280;67498;53.650;10.090;2024-03-02T13:43:55;100387.13;;;13.62
78225;BMP280;67498;53.650;10.090;2024-03-02T13:46:21;100379.69;;;13.61
78225;BMP280;67498;53.650;10.090;2024-03-02T13:48:47;100388.28;;;13.61
78225;BMP280;67498;53.650;10.090;2024-03-02T13:51:12;100386.06;;;13.60
78225;BMP280;67498;53.650;10.090;2024-03-02T13:53:37;100378.94;;;13.60
78225;BMP280;67498;53.650;10.090;2024-03-02T13:56:02;100378.63;;;13.58
78225;BMP280;67498;53.650;10.090;2024-03-02T13:58:28;100378.19;;;13.60